Lima, OH

3:36 AM EDT on July 24, 2016 (GMT -0400)
APRSWXNET | | Change Station

Elev 861 ft 40.73 °N, 84.12 °W | Updated 35 minutes ago

Clear
Clear
82 °F
Feels Like 88 °F
N
0
Wind Variable Wind from SSE
Gusts 0.0 mph

Today
High -- | Low -- °F
--% Chance of Precip.
Yesterday
High -- | Low -- °F
Precip. -- in
Pressure 29.96 in
Visibility 10.0 miles
Clouds Clear
Heat Index 88 °F
Dew Point 74 °F
Humidity 78%
Rainfall in
Snow Depth Not available.
6:25 AM 8:59 PM
Waning Gibbous, 78% visible
METAR KAOH 240653Z AUTO 17006KT 10SM CLR 24/23 A2999 RMK AO2 SLP144 T02390228
Pressure 29.96 in
Visibility 10.0 miles
Clouds Clear
Heat Index 88 °F
Dew Point 74 °F
Humidity 78%
Rainfall in
Snow Depth Not available.
6:25 AM 8:59 PM
Waning Gibbous, 78% visible
METAR KAOH 240653Z AUTO 17006KT 10SM CLR 24/23 A2999 RMK AO2 SLP144 T02390228

10-Day Weather Forecast

Almanac

Astronomy

Jul. 24, 2016 Rise Set
Actual Time
Civil Twilight
Nautical Twilight
Astronomical Twilight
Moon
Length of Visible Light
Length of Day
Tomorrow will be .
, % of the Moon is Illuminated

Today's Extremes

State Highs State Lows

Community

WunderPhotos

Upload Photos

1,927,041 photos uploaded!

WunderBlog® & News

Nearby

Air Quality

  Air Quality AQ Index Pollutant
Not available.

Snow Depth

Station Depth Elevation

Earthquake Activity

City Distance Mag. Time & Date
Minimum magnitude displayed is 2.5.

Coastal Water Temperatures

Place Temperature

Stations

Nearby Weather Stations

Station Location Temp. Windchill Dew Point Humidity Wind Precip. Elev Updated Type
                   

Watches & Warnings

There are currently no watches in effect.